sensor_id;sensor_type;location;lat;lon;timestamp;pressure;altitude;pressure_sealevel;temperature;humidity
20228;BME280;12195;55.790;37.572;2023-05-24T00:00:03;99750.67;;;18.29;67.80
20228;BME280;12195;55.790;37.572;2023-05-24T00:02:53;99762.28;;;18.48;67.93
20228;BME280;12195;55.790;37.572;2023-05-24T00:05:36;99756.36;;;18.45;68.24
20228;BME280;12195;55.790;37.572;2023-05-24T00:08:11;99750.48;;;18.21;67.51
20228;BME280;12195;55.790;37.572;2023-05-24T00:10:55;99755.80;;;18.41;67.45
20228;BME280;12195;55.790;37.572;2023-05-24T00:13:27;99748.64;;;18.21;66.81
20228;BME280;12195;55.790;37.572;2023-05-24T00:16:10;99759.44;;;18.40;67.03
20228;BME280;12195;55.790;37.572;2023-05-24T00:18:43;99748.64;;;18.21;65.95
20228;BME280;12195;55.790;37.572;2023-05-24T00:21:27;99749.50;;;18.42;66.57
20228;BME280;12195;55.790;37.572;2023-05-24T00:23:59;99750.32;;;18.22;66.08
20228;BME280;12195;55.790;37.572;2023-05-24T00:26:43;99747.56;;;18.44;66.02
20228;BME280;12195;55.790;37.572;2023-05-24T00:29:16;99740.41;;;18.24;65.26
20228;BME280;12195;55.790;37.572;2023-05-24T00:31:59;99746.58;;;18.45;65.76
20228;BME280;12195;55.790;37.572;2023-05-24T00:34:33;99738.73;;;18.23;65.90
20228;BME280;12195;55.790;37.572;2023-05-24T00:37:17;99743.48;;;18.40;67.26
20228;BME280;12195;55.790;37.572;2023-05-24T00:40:01;99740.95;;;18.39;67.71
20228;BME280;12195;55.790;37.572;2023-05-24T00:42:35;99730.13;;;18.10;67.35
20228;BME280;12195;55.790;37.572;2023-05-24T00:45:17;99740.16;;;18.27;68.96
20228;BME280;12195;55.790;37.572;2023-05-24T00:47:51;99726.80;;;17.97;68.99
20228;BME280;12195;55.790;37.572;2023-05-24T00:50:34;99733.93;;;18.17;69.70
20228;BME280;12195;55.790;37.572;2023-05-24T00:53:07;99732.65;;;17.91;68.90
20228;BME280;12195;55.790;37.572;2023-05-24T00:55:53;99732.50;;;18.13;70.31
20228;BME280;12195;55.790;37.572;2023-05-24T00:58:26;99729.42;;;17.88;70.76
20228;BME280;12195;55.790;37.572;2023-05-24T01:01:12;99728.42;;;18.09;70.28
20228;BME280;12195;55.790;37.572;2023-05-24T01:03:58;99729.33;;;17.99;71.70
20228;BME280;12195;55.790;37.572;2023-05-24T01:06:37;99725.78;;;17.89;70.70
20228;BME280;12195;55.790;37.572;2023-05-24T01:09:27;99710.13;;;18.16;70.27
20228;BME280;12195;55.790;37.572;2023-05-24T01:12:31;99710.98;;;17.96;69.45
20228;BME280;12195;55.790;37.572;2023-05-24T01:18:12;99709.50;;;18.23;70.01
20228;BME280;12195;55.790;37.572;2023-05-24T01:20:46;99707.09;;;18.00;69.62
20228;BME280;12195;55.790;37.572;2023-05-24T01:29:26;99702.95;;;18.27;69.53
20228;BME280;12195;55.790;37.572;2023-05-24T01:32:01;99690.90;;;18.03;68.84
20228;BME280;12195;55.790;37.572;2023-05-24T01:34:46;99707.28;;;18.28;69.74
20228;BME280;12195;55.790;37.572;2023-05-24T01:37:19;99697.51;;;18.08;69.02
20228;BME280;12195;55.790;37.572;2023-05-24T01:40:03;99704.37;;;18.31;68.95
20228;BME280;12195;55.790;37.572;2023-05-24T01:45:35;99706.52;;;18.37;67.93
20228;BME280;12195;55.790;37.572;2023-05-24T01:51:00;99709.05;;;18.39;67.71
20228;BME280;12195;55.790;37.572;2023-05-24T01:53:38;99687.06;;;18.16;67.47
20228;BME280;12195;55.790;37.572;2023-05-24T01:56:19;99691.98;;;18.41;67.37
20228;BME280;12195;55.790;37.572;2023-05-24T01:58:55;99694.78;;;18.19;67.05
20228;BME280;12195;55.790;37.572;2023-05-24T02:01:39;99699.83;;;18.43;67.38
20228;BME280;12195;55.790;37.572;2023-05-24T02:04:13;99704.18;;;18.23;66.50
20228;BME280;12195;55.790;37.572;2023-05-24T02:06:58;99695.80;;;18.48;66.94
20228;BME280;12195;55.790;37.572;2023-05-24T02:09:31;99695.09;;;18.26;66.78
20228;BME280;12195;55.790;37.572;2023-05-24T02:12:15;99695.38;;;18.53;66.43
20228;BME280;12195;55.790;37.572;2023-05-24T02:14:48;99684.05;;;18.30;66.38
20228;BME280;12195;55.790;37.572;2023-05-24T02:17:32;99692.59;;;18.54;65.89
20228;BME280;12195;55.790;37.572;2023-05-24T02:20:07;99694.42;;;18.33;64.86
20228;BME280;12195;55.790;37.572;2023-05-24T02:22:52;99693.31;;;18.56;65.93
20228;BME280;12195;55.790;37.572;2023-05-24T02:25:26;99687.86;;;18.07;66.40
20228;BME280;12195;55.790;37.572;2023-05-24T02:28:10;99698.20;;;18.51;66.33
20228;BME280;12195;55.790;37.572;2023-05-24T02:30:43;99686.58;;;18.32;65.44
20228;BME280;12195;55.790;37.572;2023-05-24T02:33:25;99686.02;;;18.58;65.51
20228;BME280;12195;55.790;37.572;2023-05-24T02:36:10;99692.06;;;18.60;64.92
20228;BME280;12195;55.790;37.572;2023-05-24T02:38:43;99691.13;;;18.41;65.13
20228;BME280;12195;55.790;37.572;2023-05-24T02:41:16;99689.31;;;18.41;64.21
20228;BME280;12195;55.790;37.572;2023-05-24T02:44:00;99698.51;;;18.67;64.73
20228;BME280;12195;55.790;37.572;2023-05-24T02:46:33;99680.95;;;18.46;64.14
20228;BME280;12195;55.790;37.572;2023-05-24T02:49:16;99688.20;;;18.74;64.05
20228;BME280;12195;55.790;37.572;2023-05-24T02:51:59;99687.77;;;18.78;64.34
20228;BME280;12195;55.790;37.572;2023-05-24T02:54:43;99689.91;;;18.84;63.95
20228;BME280;12195;55.790;37.572;2023-05-24T02:57:17;99683.80;;;18.63;63.51
20228;BME280;12195;55.790;37.572;2023-05-24T02:59:59;99687.67;;;18.89;63.93
20228;BME280;12195;55.790;37.572;2023-05-24T03:02:34;99682.02;;;18.73;63.49
20228;BME280;12195;55.790;37.572;2023-05-24T03:05:18;99674.26;;;19.00;63.20
20228;BME280;12195;55.790;37.572;2023-05-24T03:07:51;99677.30;;;18.86;62.99
20228;BME280;12195;55.790;37.572;2023-05-24T03:10:35;99685.05;;;19.18;63.02
20228;BME280;12195;55.790;37.572;2023-05-24T03:13:09;99672.02;;;19.05;62.14
20228;BME280;12195;55.790;37.572;2023-05-24T03:15:51;99674.46;;;19.37;62.12
20228;BME280;12195;55.790;37.572;2023-05-24T03:18:35;99674.47;;;19.46;61.55
20228;BME280;12195;55.790;37.572;2023-05-24T03:21:08;99670.11;;;19.26;61.37
20228;BME280;12195;55.790;37.572;2023-05-24T03:23:55;99673.07;;;19.52;62.12
20228;BME280;12195;55.790;37.572;2023-05-24T03:26:41;99672.35;;;19.50;61.81
20228;BME280;12195;55.790;37.572;2023-05-24T03:29:13;99670.11;;;19.26;61.45
20228;BME280;12195;55.790;37.572;2023-05-24T03:31:57;99685.53;;;19.51;61.53
20228;BME280;12195;55.790;37.572;2023-05-24T03:34:41;99680.89;;;19.53;62.11
20228;BME280;12195;55.790;37.572;2023-05-24T03:37:28;99683.70;;;19.61;61.54
20228;BME280;12195;55.790;37.572;2023-05-24T03:40:02;99672.77;;;19.45;60.58
20228;BME280;12195;55.790;37.572;2023-05-24T03:43:06;99670.23;;;19.82;61.08
20228;BME280;12195;55.790;37.572;2023-05-24T03:45:50;99673.84;;;19.90;60.59
20228;BME280;12195;55.790;37.572;2023-05-24T03:48:23;99664.77;;;19.74;59.98
20228;BME280;12195;55.790;37.572;2023-05-24T03:51:07;99661.47;;;20.08;60.52
20228;BME280;12195;55.790;37.572;2023-05-24T03:53:51;99664.41;;;20.24;59.75
20228;BME280;12195;55.790;37.572;2023-05-24T03:56:24;99661.07;;;20.03;58.49
20228;BME280;12195;55.790;37.572;2023-05-24T03:59:09;99654.41;;;20.26;59.58
20228;BME280;12195;55.790;37.572;2023-05-24T04:01:41;99646.89;;;20.03;58.70
20228;BME280;12195;55.790;37.572;2023-05-24T04:04:24;99644.56;;;20.36;59.16
20228;BME280;12195;55.790;37.572;2023-05-24T04:07:10;99647.02;;;20.47;58.73
20228;BME280;12195;55.790;37.572;2023-05-24T04:09:53;99643.57;;;20.37;59.24
20228;BME280;12195;55.790;37.572;2023-05-24T04:12:26;99628.25;;;20.39;58.08
20228;BME280;12195;55.790;37.572;2023-05-24T04:14:59;99639.27;;;20.54;57.46
20228;BME280;12195;55.790;37.572;2023-05-24T04:17:43;99644.17;;;20.86;57.56
20228;BME280;12195;55.790;37.572;2023-05-24T04:20:18;99639.83;;;20.58;56.97
20228;BME280;12195;55.790;37.572;2023-05-24T04:23:01;99641.94;;;20.81;57.60
20228;BME280;12195;55.790;37.572;2023-05-24T04:25:43;99641.94;;;20.81;57.47
20228;BME280;12195;55.790;37.572;2023-05-24T04:28:16;99636.45;;;20.55;56.52
20228;BME280;12195;55.790;37.572;2023-05-24T04:30:50;99643.64;;;20.55;56.95
20228;BME280;12195;55.790;37.572;2023-05-24T04:33:36;99645.31;;;20.83;57.27
20228;BME280;12195;55.790;37.572;2023-05-24T04:36:23;99643.47;;;20.84;58.32
20228;BME280;12195;55.790;37.572;2023-05-24T04:38:57;99640.12;;;20.54;59.12
20228;BME280;12195;55.790;37.572;2023-05-24T04:41:41;99644.31;;;20.84;58.62
20228;BME280;12195;55.790;37.572;2023-05-24T04:44:15;99640.75;;;20.66;57.18
20228;BME280;12195;55.790;37.572;2023-05-24T04:46:57;99637.48;;;20.99;57.51
20228;BME280;12195;55.790;37.572;2023-05-24T04:49:31;99635.02;;;20.88;56.61
20228;BME280;12195;55.790;37.572;2023-05-24T04:52:15;99648.97;;;21.27;56.87
20228;BME280;12195;55.790;37.572;2023-05-24T04:54:57;99649.42;;;21.40;56.15
20228;BME280;12195;55.790;37.572;2023-05-24T04:57:32;99637.36;;;21.36;55.28
20228;BME280;12195;55.790;37.572;2023-05-24T05:00:16;99639.67;;;21.91;54.80
20228;BME280;12195;55.790;37.572;2023-05-24T05:02:49;99641.30;;;22.10;53.11
20228;BME280;12195;55.790;37.572;2023-05-24T05:05:22;99641.88;;;22.47;51.86
20228;BME280;12195;55.790;37.572;2023-05-24T05:08:06;99648.61;;;23.16;51.72
20228;BME280;12195;55.790;37.572;2023-05-24T05:10:39;99641.33;;;23.42;49.69
20228;BME280;12195;55.790;37.572;2023-05-24T05:13:22;99639.80;;;24.04;49.50
20228;BME280;12195;55.790;37.572;2023-05-24T05:15:55;99650.05;;;24.00;48.22
20228;BME280;12195;55.790;37.572;2023-05-24T05:18:39;99648.09;;;24.41;48.40
20228;BME280;12195;55.790;37.572;2023-05-24T05:21:12;99649.48;;;24.21;47.05
20228;BME280;12195;55.790;37.572;2023-05-24T05:23:56;99642.84;;;24.55;47.70
20228;BME280;12195;55.790;37.572;2023-05-24T05:26:29;99640.60;;;24.28;46.67
20228;BME280;12195;55.790;37.572;2023-05-24T05:29:12;99644.17;;;24.67;47.39
20228;BME280;12195;55.790;37.572;2023-05-24T05:31:45;99643.37;;;24.51;46.10
20228;BME280;12195;55.790;37.572;2023-05-24T05:34:29;99647.05;;;24.96;46.29
20228;BME280;12195;55.790;37.572;2023-05-24T05:37:02;99644.23;;;24.90;44.29
20228;BME280;12195;55.790;37.572;2023-05-24T05:39:47;99654.84;;;25.45;44.62
20228;BME280;12195;55.790;37.572;2023-05-24T05:42:19;99642.36;;;25.29;43.24
20228;BME280;12195;55.790;37.572;2023-05-24T05:45:04;99646.05;;;25.73;44.35
20228;BME280;12195;55.790;37.572;2023-05-24T05:47:37;99641.95;;;25.40;42.81
20228;BME280;12195;55.790;37.572;2023-05-24T05:50:23;99650.23;;;25.76;43.88
20228;BME280;12195;55.790;37.572;2023-05-24T05:52:56;99630.96;;;24.88;44.05
20228;BME280;12195;55.790;37.572;2023-05-24T05:55:38;99632.17;;;25.62;43.45
20228;BME280;12195;55.790;37.572;2023-05-24T05:58:11;99631.09;;;25.48;41.79
20228;BME280;12195;55.790;37.572;2023-05-24T06:00:56;99633.73;;;25.93;42.71
20228;BME280;12195;55.790;37.572;2023-05-24T06:03:29;99621.80;;;25.59;41.54
20228;BME280;12195;55.790;37.572;2023-05-24T06:06:11;99626.53;;;25.94;43.02
20228;BME280;12195;55.790;37.572;2023-05-24T06:08:44;99619.86;;;25.67;41.47
20228;BME280;12195;55.790;37.572;2023-05-24T06:11:26;99628.30;;;26.01;42.46
20228;BME280;12195;55.790;37.572;2023-05-24T06:13:59;99625.06;;;25.69;41.65
20228;BME280;12195;55.790;37.572;2023-05-24T06:16:51;99632.22;;;26.13;42.74
20228;BME280;12195;55.790;37.572;2023-05-24T06:19:25;99624.61;;;26.02;41.58
20228;BME280;12195;55.790;37.572;2023-05-24T06:22:08;99630.10;;;26.52;41.80
20228;BME280;12195;55.790;37.572;2023-05-24T06:24:41;99619.16;;;26.25;40.81
20228;BME280;12195;55.790;37.572;2023-05-24T06:27:26;99626.50;;;26.60;41.49
20228;BME280;12195;55.790;37.572;2023-05-24T06:29:59;99616.37;;;26.18;40.65
20228;BME280;12195;55.790;37.572;2023-05-24T06:32:43;99618.75;;;26.57;41.79
20228;BME280;12195;55.790;37.572;2023-05-24T06:35:17;99609.69;;;26.29;40.76
20228;BME280;12195;55.790;37.572;2023-05-24T06:38:20;99624.26;;;26.78;41.56
20228;BME280;12195;55.790;37.572;2023-05-24T06:40:53;99614.13;;;26.36;40.51
20228;BME280;12195;55.790;37.572;2023-05-24T06:43:35;99623.70;;;26.68;41.02
20228;BME280;12195;55.790;37.572;2023-05-24T06:46:09;99617.85;;;26.35;40.62
20228;BME280;12195;55.790;37.572;2023-05-24T06:48:53;99620.64;;;26.71;41.04
20228;BME280;12195;55.790;37.572;2023-05-24T06:51:26;99615.43;;;26.40;40.37
20228;BME280;12195;55.790;37.572;2023-05-24T06:54:10;99613.16;;;26.87;40.74
20228;BME280;12195;55.790;37.572;2023-05-24T06:56:43;99618.41;;;26.60;39.94
20228;BME280;12195;55.790;37.572;2023-05-24T06:59:27;99621.55;;;27.13;40.06
20228;BME280;12195;55.790;37.572;2023-05-24T07:02:11;99620.94;;;27.32;40.06
20228;BME280;12195;55.790;37.572;2023-05-24T07:04:44;99614.95;;;27.16;38.96
20228;BME280;12195;55.790;37.572;2023-05-24T07:07:29;99620.28;;;27.72;38.88
20228;BME280;12195;55.790;37.572;2023-05-24T07:10:03;99617.36;;;27.46;38.20
20228;BME280;12195;55.790;37.572;2023-05-24T07:12:47;99604.58;;;28.03;38.57
20228;BME280;12195;55.790;37.572;2023-05-24T07:15:20;99608.80;;;27.85;38.32
20228;BME280;12195;55.790;37.572;2023-05-24T07:18:03;99610.37;;;28.34;38.37
20228;BME280;12195;55.790;37.572;2023-05-24T07:20:36;99617.04;;;28.04;37.31
20228;BME280;12195;55.790;37.572;2023-05-24T07:23:20;99614.77;;;28.35;37.82
20228;BME280;12195;55.790;37.572;2023-05-24T07:25:53;99613.36;;;27.84;37.93
20228;BME280;12195;55.790;37.572;2023-05-24T07:28:25;99606.59;;;27.74;38.08
20228;BME280;12195;55.790;37.572;2023-05-24T07:31:09;99619.20;;;28.15;38.52
20228;BME280;12195;55.790;37.572;2023-05-24T07:33:42;99618.76;;;27.84;37.24
20228;BME280;12195;55.790;37.572;2023-05-24T07:36:26;99629.28;;;28.34;37.69
20228;BME280;12195;55.790;37.572;2023-05-24T07:39:02;99623.87;;;28.00;37.05
20228;BME280;12195;55.790;37.572;2023-05-24T07:41:48;99638.30;;;28.41;36.81
20228;BME280;12195;55.790;37.572;2023-05-24T07:44:21;99629.66;;;27.97;36.63
20228;BME280;12195;55.790;37.572;2023-05-24T07:47:04;99641.71;;;28.29;37.43
20228;BME280;12195;55.790;37.572;2023-05-24T07:49:37;99637.38;;;27.79;37.11
20228;BME280;12195;55.790;37.572;2023-05-24T07:52:21;99637.22;;;28.08;37.39
20228;BME280;12195;55.790;37.572;2023-05-24T07:54:54;99632.77;;;27.52;37.25
20228;BME280;12195;55.790;37.572;2023-05-24T07:57:38;99639.73;;;27.82;37.92
20228;BME280;12195;55.790;37.572;2023-05-24T08:00:12;99631.55;;;27.34;38.08
20228;BME280;12195;55.790;37.572;2023-05-24T08:02:59;99633.41;;;27.75;37.80
20228;BME280;12195;55.790;37.572;2023-05-24T08:05:43;99643.81;;;27.78;38.17
20228;BME280;12195;55.790;37.572;2023-05-24T08:08:16;99629.19;;;27.45;37.78
20228;BME280;12195;55.790;37.572;2023-05-24T08:11:00;99641.25;;;27.91;37.83
20228;BME280;12195;55.790;37.572;2023-05-24T08:13:34;99637.65;;;27.63;37.62
20228;BME280;12195;55.790;37.572;2023-05-24T08:16:17;99646.17;;;28.09;37.61
20228;BME280;12195;55.790;37.572;2023-05-24T08:18:50;99633.92;;;27.85;37.34
20228;BME280;12195;55.790;37.572;2023-05-24T08:21:35;99638.47;;;28.40;37.44
20228;BME280;12195;55.790;37.572;2023-05-24T08:24:08;99635.87;;;28.25;36.92
20228;BME280;12195;55.790;37.572;2023-05-24T08:26:53;99642.28;;;28.92;36.83
20228;BME280;12195;55.790;37.572;2023-05-24T08:29:26;99630.43;;;28.87;35.42
20228;BME280;12195;55.790;37.572;2023-05-24T08:32:10;99642.68;;;29.50;35.52
20228;BME280;12195;55.790;37.572;2023-05-24T08:34:54;99633.18;;;29.80;35.29
20228;BME280;12195;55.790;37.572;2023-05-24T08:37:28;99631.48;;;29.66;34.10
20228;BME280;12195;55.790;37.572;2023-05-24T08:40:14;99633.98;;;30.13;34.40
20228;BME280;12195;55.790;37.572;2023-05-24T08:43:00;99623.16;;;30.06;34.66
20228;BME280;12195;55.790;37.572;2023-05-24T08:45:35;99631.25;;;29.54;34.32
20228;BME280;12195;55.790;37.572;2023-05-24T08:48:21;99631.92;;;29.89;34.80
20228;BME280;12195;55.790;37.572;2023-05-24T08:50:57;99627.66;;;29.28;33.86
20228;BME280;12195;55.790;37.572;2023-05-24T08:53:43;99626.87;;;29.47;34.96
20228;BME280;12195;55.790;37.572;2023-05-24T08:56:22;99627.91;;;28.79;35.43
20228;BME280;12195;55.790;37.572;2023-05-24T08:59:08;99635.92;;;29.00;35.83
20228;BME280;12195;55.790;37.572;2023-05-24T09:01:43;99640.67;;;27.54;37.01
20228;BME280;12195;55.790;37.572;2023-05-24T09:04:29;99647.08;;;28.22;36.75
20228;BME280;12195;55.790;37.572;2023-05-24T09:07:16;99644.79;;;28.19;36.56
20228;BME280;12195;55.790;37.572;2023-05-24T09:10:04;99636.23;;;27.67;36.67
20228;BME280;12195;55.790;37.572;2023-05-24T09:12:56;99640.88;;;27.94;36.61
20228;BME280;12195;55.790;37.572;2023-05-24T09:15:30;99642.34;;;27.34;36.73
20228;BME280;12195;55.790;37.572;2023-05-24T09:18:14;99641.45;;;27.69;37.33
20228;BME280;12195;55.790;37.572;2023-05-24T09:20:47;99631.17;;;27.37;36.90
20228;BME280;12195;55.790;37.572;2023-05-24T09:23:31;99627.75;;;27.91;37.00
20228;BME280;12195;55.790;37.572;2023-05-24T09:26:09;99627.23;;;27.81;36.07
20228;BME280;12195;55.790;37.572;2023-05-24T09:28:54;99625.67;;;28.48;36.13
20228;BME280;12195;55.790;37.572;2023-05-24T09:31:35;99623.62;;;28.57;34.99
20228;BME280;12195;55.790;37.572;2023-05-24T09:34:20;99636.63;;;29.28;34.92
20228;BME280;12195;55.790;37.572;2023-05-24T09:36:53;99628.52;;;29.35;33.99
20228;BME280;12195;55.790;37.572;2023-05-24T09:39:38;99629.00;;;30.03;33.43
20228;BME280;12195;55.790;37.572;2023-05-24T09:42:16;99625.66;;;29.75;33.42
20228;BME280;12195;55.790;37.572;2023-05-24T09:45:05;99628.57;;;30.13;33.58
20228;BME280;12195;55.790;37.572;2023-05-24T09:47:52;99628.98;;;30.10;34.38
20228;BME280;12195;55.790;37.572;2023-05-24T09:50:25;99631.08;;;29.69;32.75
20228;BME280;12195;55.790;37.572;2023-05-24T09:53:10;99632.35;;;30.18;33.13
20228;BME280;12195;55.790;37.572;2023-05-24T09:55:43;99620.87;;;29.97;32.19
20228;BME280;12195;55.790;37.572;2023-05-24T09:58:30;99622.82;;;30.66;33.05
20228;BME280;12195;55.790;37.572;2023-05-24T10:01:05;99626.80;;;30.64;31.75
20228;BME280;12195;55.790;37.572;2023-05-24T10:03:54;99635.34;;;31.18;31.62
20228;BME280;12195;55.790;37.572;2023-05-24T10:06:41;99642.00;;;31.28;32.07
20228;BME280;12195;55.790;37.572;2023-05-24T10:09:29;99636.25;;;31.49;31.81
20228;BME280;12195;55.790;37.572;2023-05-24T10:12:06;99623.20;;;31.33;30.58
20228;BME280;12195;55.790;37.572;2023-05-24T10:14:50;99635.41;;;32.04;30.72
20228;BME280;12195;55.790;37.572;2023-05-24T10:17:23;99632.75;;;31.67;29.87
20228;BME280;12195;55.790;37.572;2023-05-24T10:20:07;99642.63;;;32.17;30.28
20228;BME280;12195;55.790;37.572;2023-05-24T10:22:44;99634.71;;;31.60;30.10
20228;BME280;12195;55.790;37.572;2023-05-24T10:25:27;99648.21;;;31.97;30.67
20228;BME280;12195;55.790;37.572;2023-05-24T10:33:45;99654.84;;;31.46;31.08
20228;BME280;12195;55.790;37.572;2023-05-24T10:36:19;99649.63;;;29.59;32.83
20228;BME280;12195;55.790;37.572;2023-05-24T10:39:06;99659.17;;;30.52;32.71
20228;BME280;12195;55.790;37.572;2023-05-24T10:41:39;99655.67;;;30.13;31.72
20228;BME280;12195;55.790;37.572;2023-05-24T10:44:27;99662.95;;;30.45;32.30
20228;BME280;12195;55.790;37.572;2023-05-24T10:47:10;99656.91;;;29.71;33.08
20228;BME280;12195;55.790;37.572;2023-05-24T10:49:55;99647.93;;;29.58;33.29
20228;BME280;12195;55.790;37.572;2023-05-24T10:52:44;99652.13;;;30.06;33.31
20228;BME280;12195;55.790;37.572;2023-05-24T10:55:19;99655.25;;;29.77;32.73
20228;BME280;12195;55.790;37.572;2023-05-24T10:58:04;99661.31;;;30.18;32.74
20228;BME280;12195;55.790;37.572;2023-05-24T11:00:50;99664.00;;;30.11;32.67
20228;BME280;12195;55.790;37.572;2023-05-24T11:03:24;99660.55;;;29.31;33.29
20228;BME280;12195;55.790;37.572;2023-05-24T11:06:09;99668.48;;;29.39;34.15
20228;BME280;12195;55.790;37.572;2023-05-24T11:08:42;99658.17;;;28.61;35.21
20228;BME280;12195;55.790;37.572;2023-05-24T11:11:26;99666.12;;;28.69;35.65
20228;BME280;12195;55.790;37.572;2023-05-24T11:14:02;99670.67;;;28.07;36.64
20228;BME280;12195;55.790;37.572;2023-05-24T11:16:47;99671.23;;;28.30;36.33
20228;BME280;12195;55.790;37.572;2023-05-24T11:19:27;99669.42;;;27.82;36.33
20228;BME280;12195;55.790;37.572;2023-05-24T11:22:09;99679.59;;;28.08;36.05
20228;BME280;12195;55.790;37.572;2023-05-24T11:24:43;99671.45;;;27.59;36.59
20228;BME280;12195;55.790;37.572;2023-05-24T11:27:16;99690.23;;;27.88;36.09
20228;BME280;12195;55.790;37.572;2023-05-24T11:29:58;99683.84;;;27.75;36.86
20228;BME280;12195;55.790;37.572;2023-05-24T11:32:33;99675.67;;;27.26;38.57
20228;BME280;12195;55.790;37.572;2023-05-24T11:35:18;99685.91;;;27.52;37.76
20228;BME280;12195;55.790;37.572;2023-05-24T11:37:52;99679.30;;;27.19;37.90
20228;BME280;12195;55.790;37.572;2023-05-24T11:40:36;99688.67;;;27.58;37.10
20228;BME280;12195;55.790;37.572;2023-05-24T11:43:22;99694.07;;;27.79;36.94
20228;BME280;12195;55.790;37.572;2023-05-24T11:45:55;99685.06;;;27.72;37.04
20228;BME280;12195;55.790;37.572;2023-05-24T11:48:39;99685.98;;;28.28;36.73
20228;BME280;12195;55.790;37.572;2023-05-24T11:51:12;99679.16;;;28.04;36.58
20228;BME280;12195;55.790;37.572;2023-05-24T11:53:58;99689.19;;;28.38;36.75
20228;BME280;12195;55.790;37.572;2023-05-24T11:56:31;99678.72;;;28.01;37.06
20228;BME280;12195;55.790;37.572;2023-05-24T11:59:27;99686.67;;;28.36;37.12
20228;BME280;12195;55.790;37.572;2023-05-24T12:02:04;99679.78;;;28.06;37.48
20228;BME280;12195;55.790;37.572;2023-05-24T12:04:48;99676.59;;;28.51;36.90
20228;BME280;12195;55.790;37.572;2023-05-24T12:07:22;99666.33;;;28.40;36.80
20228;BME280;12195;55.790;37.572;2023-05-24T12:10:07;99672.09;;;28.99;36.46
20228;BME280;12195;55.790;37.572;2023-05-24T12:12:44;99664.36;;;28.55;36.55
20228;BME280;12195;55.790;37.572;2023-05-24T12:15:26;99670.58;;;29.44;35.35
20228;BME280;12195;55.790;37.572;2023-05-24T12:17:59;99661.58;;;29.23;34.98
20228;BME280;12195;55.790;37.572;2023-05-24T12:20:48;99667.53;;;29.60;35.44
20228;BME280;12195;55.790;37.572;2023-05-24T12:23:23;99656.84;;;29.39;35.39
20228;BME280;12195;55.790;37.572;2023-05-24T12:26:11;99661.52;;;30.16;34.97
20228;BME280;12195;55.790;37.572;2023-05-24T12:28:56;99655.20;;;30.55;34.38
20228;BME280;12195;55.790;37.572;2023-05-24T12:31:29;99649.63;;;30.37;33.62
20228;BME280;12195;55.790;37.572;2023-05-24T12:34:20;99659.34;;;30.64;33.37
20228;BME280;12195;55.790;37.572;2023-05-24T12:36:54;99648.98;;;29.83;33.72
20228;BME280;12195;55.790;37.572;2023-05-24T12:39:40;99651.49;;;29.84;33.97
20228;BME280;12195;55.790;37.572;2023-05-24T12:42:14;99645.69;;;29.01;34.71
20228;BME280;12195;55.790;37.572;2023-05-24T12:44:46;99658.26;;;29.22;34.69
20228;BME280;12195;55.790;37.572;2023-05-24T12:47:30;99646.11;;;29.04;35.65
20228;BME280;12195;55.790;37.572;2023-05-24T12:50:04;99644.42;;;28.56;35.88
20228;BME280;12195;55.790;37.572;2023-05-24T12:52:49;99645.78;;;28.80;35.86
20228;BME280;12195;55.790;37.572;2023-05-24T12:55:36;99643.42;;;28.64;36.37
20228;BME280;12195;55.790;37.572;2023-05-24T12:58:09;99640.01;;;28.21;36.77
20228;BME280;12195;55.790;37.572;2023-05-24T13:00:54;99642.66;;;28.42;36.93
20228;BME280;12195;55.790;37.572;2023-05-24T13:03:43;99650.28;;;28.32;37.15
20228;BME280;12195;55.790;37.572;2023-05-24T13:06:16;99638.88;;;27.82;37.37
20228;BME280;12195;55.790;37.572;2023-05-24T13:08:59;99647.52;;;27.98;37.64
20228;BME280;12195;55.790;37.572;2023-05-24T13:11:32;99652.69;;;27.51;38.69
20228;BME280;12195;55.790;37.572;2023-05-24T13:14:16;99662.00;;;27.70;38.28
20228;BME280;12195;55.790;37.572;2023-05-24T13:16:50;99654.09;;;27.26;38.47
20228;BME280;12195;55.790;37.572;2023-05-24T13:19:34;99662.56;;;27.44;38.44
20228;BME280;12195;55.790;37.572;2023-05-24T13:22:07;99657.65;;;26.98;38.77
20228;BME280;12195;55.790;37.572;2023-05-24T13:24:49;99660.33;;;27.27;38.73
20228;BME280;12195;55.790;37.572;2023-05-24T13:27:23;99659.87;;;27.09;39.33
20228;BME280;12195;55.790;37.572;2023-05-24T13:29:56;99670.95;;;27.49;38.12
20228;BME280;12195;55.790;37.572;2023-05-24T13:32:40;99666.59;;;27.90;37.99
20228;BME280;12195;55.790;37.572;2023-05-24T13:35:13;99651.81;;;27.86;37.18
20228;BME280;12195;55.790;37.572;2023-05-24T13:37:59;99657.02;;;28.43;37.15
20228;BME280;12195;55.790;37.572;2023-05-24T13:40:32;99650.58;;;28.16;36.55
20228;BME280;12195;55.790;37.572;2023-05-24T13:43:16;99658.69;;;29.32;35.36
20228;BME280;12195;55.790;37.572;2023-05-24T13:45:50;99652.73;;;29.62;34.21
20228;BME280;12195;55.790;37.572;2023-05-24T13:48:32;99661.71;;;30.02;33.92
20228;BME280;12195;55.790;37.572;2023-05-24T13:51:05;99657.85;;;29.38;34.34
20228;BME280;12195;55.790;37.572;2023-05-24T13:53:49;99653.75;;;29.55;34.88
20228;BME280;12195;55.790;37.572;2023-05-24T13:56:34;99653.10;;;29.53;35.31
20228;BME280;12195;55.790;37.572;2023-05-24T13:59:07;99645.16;;;29.32;35.03
20228;BME280;12195;55.790;37.572;2023-05-24T14:01:52;99655.05;;;29.91;34.63
20228;BME280;12195;55.790;37.572;2023-05-24T14:04:35;99658.80;;;30.03;34.57
20228;BME280;12195;55.790;37.572;2023-05-24T14:07:20;99659.61;;;29.97;35.00
20228;BME280;12195;55.790;37.572;2023-05-24T14:09:54;99651.42;;;29.39;34.99
20228;BME280;12195;55.790;37.572;2023-05-24T14:12:27;99651.34;;;29.12;35.50
20228;BME280;12195;55.790;37.572;2023-05-24T14:15:16;99659.08;;;29.22;35.63